Wetterdaten: Woche 10.06.13 - 16.06.13 (KW24)
Datum Zeit Temp. Aussen +5cm Feuchte Auss Luftdruck Regen Sonnenschein Regendauer UV Solar Windben
10.06.2013 00:00 14,2 C 12,8 C 77 % 1010,8 hPa 0,0 l/m 0,00 h 0,00 h 0,0 UV-I 0 W/m 15,8 km/h (3 Bft)
10.06.2013 01:00 12,7 C 11,4 C 80 % 1011,0 hPa 0,0 l/m 0,00 h 0,00 h 0,0 UV-I 0 W/m 15,2 km/h (3 Bft)
10.06.2013 02:00 11,2 C 10,0 C 84 % 1011,2 hPa 0,0 l/m 0,00 h 0,00 h 0,0 UV-I 0 W/m 12,4 km/h (3 Bft)
10.06.2013 03:00 10,6 C 10,0 C 86 % 1011,4 hPa 0,0 l/m 0,00 h 0,00 h 0,0 UV-I 0 W/m 10,8 km/h (2 Bft)
10.06.2013 04:00 10,6 C 10,0 C 86 % 1011,5 hPa 0,0 l/m 0,00 h 0,00 h 0,0 UV-I 0 W/m 10,3 km/h (2 Bft)
10.06.2013 05:00 10,0 C 9,0 C 87 % 1011,5 hPa 0,0 l/m 0,00 h 0,00 h 0,0 UV-I 13 W/m 9,7 km/h (2 Bft)
10.06.2013 06:00 9,5 C 9,0 C 89 % 1011,5 hPa 0,0 l/m 0,00 h 0,00 h 0,0 UV-I 48 W/m 6,9 km/h (2 Bft)
10.06.2013 07:00 9,8 C 9,6 C 89 % 1011,9 hPa 0,0 l/m 0,17 h 0,00 h 0,0 UV-I 122 W/m 13,0 km/h (3 Bft)
10.06.2013 08:00 10,8 C 11,0 C 86 % 1012,3 hPa 0,0 l/m 0,07 h 0,00 h 0,0 UV-I 181 W/m 14,2 km/h (3 Bft)
10.06.2013 09:00 11,9 C 12,9 C 83 % 1012,8 hPa 0,0 l/m 0,43 h 0,00 h 0,9 UV-I 316 W/m 11,0 km/h (2 Bft)
10.06.2013 10:00 13,5 C 16,1 C 78 % 1012,9 hPa 0,0 l/m 1,00 h 0,00 h 1,9 UV-I 538 W/m 15,0 km/h (3 Bft)
10.06.2013 11:00 14,3 C 17,4 C 75 % 1013,1 hPa 0,0 l/m 0,60 h 0,00 h 2,4 UV-I 483 W/m 15,6 km/h (3 Bft)
10.06.2013 12:00 13,8 C 15,6 C 76 % 1013,6 hPa 0,0 l/m 0,10 h 0,00 h 1,9 UV-I 395 W/m 13,7 km/h (3 Bft)
10.06.2013 13:00 14,7 C 18,0 C 74 % 1013,7 hPa 0,0 l/m 0,73 h 0,00 h 3,0 UV-I 648 W/m 11,8 km/h (2 Bft)
10.06.2013 14:00 16,4 C 19,0 C 70 % 1013,6 hPa 0,0 l/m 1,00 h 0,00 h 4,0 UV-I 787 W/m 11,1 km/h (2 Bft)
10.06.2013 15:00 17,7 C 19,2 C 66 % 1013,4 hPa 0,0 l/m 1,00 h 0,00 h 3,6 UV-I 793 W/m 9,0 km/h (2 Bft)
10.06.2013 16:00 18,4 C 20,0 C 63 % 1013,1 hPa 0,0 l/m 1,00 h 0,00 h 2,6 UV-I 680 W/m 8,6 km/h (2 Bft)
10.06.2013 17:00 18,8 C 19,3 C 61 % 1013,0 hPa 0,0 l/m 0,98 h 0,00 h 1,5 UV-I 528 W/m 8,3 km/h (2 Bft)
10.06.2013 18:00 18,4 C 17,8 C 60 % 1012,9 hPa 0,0 l/m 0,47 h 0,00 h 0,7 UV-I 257 W/m 6,3 km/h (2 Bft)
10.06.2013 19:00 18,3 C 17,6 C 59 % 1013,0 hPa 0,0 l/m 0,00 h 0,00 h 0,0 UV-I 102 W/m 6,7 km/h (2 Bft)
10.06.2013 20:00 17,3 C 16,0 C 64 % 1013,4 hPa 0,0 l/m 0,00 h 0,00 h 0,0 UV-I 43 W/m 1,2 km/h (1 Bft)
10.06.2013 21:00 16,4 C 14,2 C 67 % 1013,8 hPa 0,0 l/m 0,00 h 0,00 h 0,0 UV-I 15 W/m 0,7 km/h (0 Bft)
10.06.2013 22:00 15,3 C 12,0 C 71 % 1014,4 hPa 0,0 l/m 0,00 h 0,00 h 0,0 UV-I 0 W/m 0,0 km/h (0 Bft)
10.06.2013 23:00 13,9 C 11,2 C 75 % 1014,7 hPa 0,0 l/m 0,00 h 0,00 h 0,0 UV-I 0 W/m 0,0 km/h (0 Bft)
11.06.2013 00:00 13,0 C 11,0 C 78 % 1015,3 hPa 0,0 l/m 0,00 h 0,00 h 0,0 UV-I 0 W/m 0,0 km/h (0 Bft)
11.06.2013 01:00 12,4 C 10,2 C 80 % 1015,7 hPa 0,0 l/m 0,00 h 0,00 h 0,0 UV-I 0 W/m 0,0 km/h (0 Bft)
11.06.2013 02:00 11,5 C 8,8 C 83 % 1015,7 hPa 0,0 l/m 0,00 h 0,00 h 0,0 UV-I 0 W/m 0,0 km/h (0 Bft)
11.06.2013 03:00 10,3 C 7,8 C 87 % 1015,6 hPa 0,0 l/m 0,00 h 0,00 h 0,0 UV-I 0 W/m 0,0 km/h (0 Bft)
11.06.2013 04:00 9,4 C 7,2 C 89 % 1015,6 hPa 0,0 l/m 0,00 h 0,00 h 0,0 UV-I 0 W/m 0,0 km/h (0 Bft)
11.06.2013 05:00 8,7 C 6,8 C 91 % 1015,6 hPa 0,0 l/m 0,00 h 0,00 h 0,0 UV-I 11 W/m 0,0 km/h (0 Bft)
11.06.2013 06:00 8,4 C 7,4 C 92 % 1015,7 hPa 0,0 l/m 0,00 h 0,00 h 0,0 UV-I 43 W/m 0,0 km/h (0 Bft)
11.06.2013 07:00 9,7 C 10,0 C 94 % 1016,0 hPa 0,0 l/m 0,10 h 0,00 h 0,0 UV-I 123 W/m 0,5 km/h (0 Bft)
11.06.2013 08:00 13,4 C 13,7 C 86 % 1016,3 hPa 0,0 l/m 0,97 h 0,00 h 0,0 UV-I 298 W/m 2,1 km/h (1 Bft)
11.06.2013 09:00 15,4 C 15,7 C 78 % 1016,5 hPa 0,0 l/m 0,70 h 0,00 h 1,0 UV-I 369 W/m 0,3 km/h (0 Bft)
11.06.2013 10:00 17,3 C 21,0 C 70 % 1016,6 hPa 0,0 l/m 0,67 h 0,00 h 1,8 UV-I 488 W/m 2,7 km/h (1 Bft)
11.06.2013 11:00 18,8 C 23,3 C 61 % 1016,6 hPa 0,0 l/m 0,67 h 0,00 h 2,9 UV-I 628 W/m 4,3 km/h (1 Bft)
11.06.2013 12:00 20,5 C 29,2 C 57 % 1016,5 hPa 0,0 l/m 1,00 h 0,00 h 4,2 UV-I 837 W/m 4,6 km/h (1 Bft)
11.06.2013 13:00 21,1 C 27,8 C 54 % 1016,4 hPa 0,0 l/m 0,73 h 0,00 h 2,9 UV-I 751 W/m 8,2 km/h (2 Bft)
11.06.2013 14:00 21,6 C 24,1 C 56 % 1016,3 hPa 0,0 l/m 0,70 h 0,00 h 3,6 UV-I 725 W/m 5,8 km/h (2 Bft)
11.06.2013 15:00 22,3 C 24,1 C 55 % 1016,2 hPa 0,0 l/m 0,77 h 0,00 h 3,4 UV-I 693 W/m 6,2 km/h (2 Bft)
11.06.2013 16:00 22,0 C 23,1 C 55 % 1016,1 hPa 0,0 l/m 0,50 h 0,00 h 2,0 UV-I 435 W/m 5,0 km/h (1 Bft)
11.06.2013 17:00 22,1 C 22,2 C 55 % 1015,8 hPa 0,0 l/m 0,97 h 0,00 h 1,5 UV-I 498 W/m 6,1 km/h (2 Bft)
11.06.2013 18:00 21,8 C 21,4 C 56 % 1015,6 hPa 0,0 l/m 0,43 h 0,00 h 0,7 UV-I 247 W/m 4,4 km/h (1 Bft)
11.06.2013 19:00 21,4 C 18,6 C 57 % 1015,6 hPa 0,0 l/m 0,00 h 0,00 h 0,0 UV-I 93 W/m 1,3 km/h (1 Bft)
11.06.2013 20:00 20,7 C 17,0 C 60 % 1015,9 hPa 0,0 l/m 0,00 h 0,00 h 0,0 UV-I 40 W/m 0,1 km/h (0 Bft)
11.06.2013 21:00 20,4 C 17,2 C 62 % 1016,2 hPa 0,0 l/m 0,00 h 0,00 h 0,0 UV-I 12 W/m 0,6 km/h (0 Bft)
11.06.2013 22:00 19,9 C 17,2 C 65 % 1016,6 hPa 0,0 l/m 0,00 h 0,00 h 0,0 UV-I 0 W/m 0,3 km/h (0 Bft)
11.06.2013 23:00 19,3 C 16,7 C 69 % 1016,7 hPa 0,0 l/m 0,00 h 0,00 h 0,0 UV-I 0 W/m 0,3 km/h (0 Bft)
12.06.2013 00:00 18,6 C 16,2 C 72 % 1016,8 hPa 0,0 l/m 0,00 h 0,00 h 0,0 UV-I 0 W/m 0,1 km/h (0 Bft)
12.06.2013 01:00 18,2 C 16,2 C 74 % 1016,9 hPa 0,0 l/m 0,00 h 0,00 h 0,0 UV-I 0 W/m 0,0 km/h (0 Bft)
12.06.2013 02:00 17,9 C 16,2 C 77 % 1016,9 hPa 0,0 l/m 0,00 h 0,00 h 0,0 UV-I 0 W/m 0,0 km/h (0 Bft)
12.06.2013 03:00 17,8 C 16,1 C 78 % 1016,7 hPa 0,0 l/m 0,00 h 0,00 h 0,0 UV-I 0 W/m 0,0 km/h (0 Bft)
12.06.2013 04:00 17,4 C 15,3 C 80 % 1016,5 hPa 0,0 l/m 0,00 h 0,00 h 0,0 UV-I 0 W/m 0,0 km/h (0 Bft)
12.06.2013 05:00 16,7 C 14,3 C 82 % 1016,5 hPa 0,0 l/m 0,00 h 0,00 h 0,0 UV-I 14 W/m 0,0 km/h (0 Bft)
12.06.2013 06:00 16,3 C 15,1 C 85 % 1016,7 hPa 0,0 l/m 0,07 h 0,00 h 0,0 UV-I 61 W/m 0,0 km/h (0 Bft)
12.06.2013 07:00 16,9 C 16,1 C 85 % 1016,7 hPa 0,0 l/m 0,27 h 0,00 h 0,0 UV-I 133 W/m 0,0 km/h (0 Bft)
12.06.2013 08:00 18,5 C 18,2 C 80 % 1016,7 hPa 0,0 l/m 0,00 h 0,00 h 0,0 UV-I 170 W/m 2,9 km/h (1 Bft)
12.06.2013 09:00 19,2 C 19,2 C 78 % 1016,7 hPa 0,0 l/m 0,17 h 0,00 h 0,7 UV-I 216 W/m 8,7 km/h (2 Bft)
12.06.2013 10:00 19,5 C 19,8 C 78 % 1016,7 hPa 0,0 l/m 0,00 h 0,00 h 1,0 UV-I 233 W/m 10,0 km/h (2 Bft)
12.06.2013 11:00 21,1 C 22,6 C 73 % 1016,5 hPa 0,0 l/m 0,20 h 0,00 h 2,4 UV-I 375 W/m 13,6 km/h (3 Bft)
12.06.2013 12:00 21,3 C 21,9 C 72 % 1016,3 hPa 0,0 l/m 0,07 h 0,00 h 1,7 UV-I 272 W/m 11,1 km/h (2 Bft)
12.06.2013 13:00 21,6 C 22,1 C 71 % 1016,3 hPa 0,0 l/m 0,00 h 0,00 h 1,7 UV-I 277 W/m 10,5 km/h (2 Bft)
12.06.2013 14:00 21,0 C 21,1 C 72 % 1016,5 hPa 0,0 l/m 0,00 h 0,00 h 1,2 UV-I 221 W/m 11,8 km/h (2 Bft)
12.06.2013 15:00 20,9 C 20,4 C 73 % 1016,4 hPa 0,0 l/m 0,00 h 0,00 h 0,7 UV-I 133 W/m 8,7 km/h (2 Bft)
12.06.2013 16:00 21,2 C 21,2 C 74 % 1016,2 hPa 0,0 l/m 0,07 h 0,00 h 1,3 UV-I 223 W/m 10,2 km/h (2 Bft)
12.06.2013 17:00 21,6 C 21,9 C 74 % 1015,9 hPa 0,0 l/m 0,23 h 0,00 h 1,1 UV-I 281 W/m 9,9 km/h (2 Bft)
12.06.2013 18:00 22,2 C 21,9 C 71 % 1015,4 hPa 0,0 l/m 0,43 h 0,00 h 0,6 UV-I 239 W/m 13,9 km/h (3 Bft)
12.06.2013 19:00 22,0 C 21,1 C 70 % 1015,5 hPa 0,0 l/m 0,00 h 0,00 h 0,0 UV-I 96 W/m 8,2 km/h (2 Bft)
12.06.2013 20:00 21,7 C 20,3 C 71 % 1015,3 hPa 0,0 l/m 0,00 h 0,00 h 0,0 UV-I 45 W/m 5,8 km/h (2 Bft)
12.06.2013 21:00 21,3 C 19,7 C 73 % 1015,2 hPa 0,0 l/m 0,00 h 0,00 h 0,0 UV-I 8 W/m 7,6 km/h (2 Bft)
12.06.2013 22:00 20,7 C 17,7 C 77 % 1015,4 hPa 0,0 l/m 0,00 h 0,43 h 0,0 UV-I 0 W/m 3,3 km/h (1 Bft)
12.06.2013 23:00 19,9 C 18,3 C 81 % 1015,4 hPa 0,0 l/m 0,00 h 0,00 h 0,0 UV-I 0 W/m 8,1 km/h (2 Bft)
13.06.2013 00:00 19,9 C 18,3 C 82 % 1015,2 hPa 0,0 l/m 0,00 h 0,00 h 0,0 UV-I 0 W/m 8,5 km/h (2 Bft)
13.06.2013 01:00 19,5 C 17,9 C 84 % 1014,9 hPa 0,0 l/m 0,00 h 0,00 h 0,0 UV-I 0 W/m 7,3 km/h (2 Bft)
13.06.2013 02:00 19,2 C 17,9 C 86 % 1014,5 hPa 0,0 l/m 0,00 h 0,00 h 0,0 UV-I 0 W/m 6,2 km/h (2 Bft)
13.06.2013 03:00 19,1 C 17,9 C 86 % 1014,1 hPa 0,0 l/m 0,00 h 0,00 h 0,0 UV-I 0 W/m 1,6 km/h (1 Bft)
13.06.2013 04:00 19,1 C 17,9 C 86 % 1014,0 hPa 0,0 l/m 0,00 h 0,00 h 0,0 UV-I 0 W/m 6,0 km/h (2 Bft)
13.06.2013 05:00 19,1 C 17,9 C 86 % 1013,6 hPa 0,0 l/m 0,00 h 0,00 h 0,0 UV-I 10 W/m 6,3 km/h (2 Bft)
13.06.2013 06:00 19,2 C 18,1 C 86 % 1013,7 hPa 0,0 l/m 0,00 h 0,00 h 0,0 UV-I 31 W/m 8,6 km/h (2 Bft)
13.06.2013 07:00 19,2 C 16,6 C 87 % 1013,6 hPa 0,2 l/m 0,00 h 0,77 h 0,0 UV-I 52 W/m 6,7 km/h (2 Bft)
13.06.2013 08:00 19,0 C 17,5 C 88 % 1013,7 hPa 0,0 l/m 0,00 h 0,37 h 0,0 UV-I 89 W/m 8,3 km/h (2 Bft)
13.06.2013 09:00 19,8 C 19,5 C 86 % 1013,6 hPa 0,0 l/m 0,00 h 0,03 h 0,8 UV-I 196 W/m 12,3 km/h (3 Bft)
13.06.2013 10:00 21,6 C 23,4 C 80 % 1012,8 hPa 0,0 l/m 0,63 h 0,00 h 2,2 UV-I 454 W/m 14,1 km/h (3 Bft)
13.06.2013 11:00 22,3 C 23,2 C 76 % 1012,5 hPa 0,0 l/m 0,23 h 0,00 h 2,3 UV-I 407 W/m 16,4 km/h (3 Bft)
13.06.2013 12:00 23,3 C 25,2 C 72 % 1012,1 hPa 0,0 l/m 0,40 h 0,00 h 3,0 UV-I 465 W/m 15,3 km/h (3 Bft)
13.06.2013 13:00 24,2 C 26,7 C 66 % 1011,6 hPa 0,0 l/m 0,73 h 0,00 h 3,3 UV-I 590 W/m 18,4 km/h (3 Bft)
13.06.2013 14:00 23,4 C 23,4 C 66 % 1011,7 hPa 0,0 l/m 0,03 h 0,00 h 1,4 UV-I 228 W/m 15,4 km/h (3 Bft)
13.06.2013 15:00 21,5 C 18,5 C 73 % 1012,5 hPa 0,4 l/m 0,00 h 0,93 h 0,5 UV-I 106 W/m 13,7 km/h (3 Bft)
13.06.2013 16:00 18,3 C 15,7 C 86 % 1013,3 hPa 0,6 l/m 0,00 h 1,00 h 0,5 UV-I 104 W/m 12,4 km/h (3 Bft)
13.06.2013 17:00 16,5 C 14,5 C 89 % 1013,4 hPa 0,2 l/m 0,00 h 0,63 h 0,0 UV-I 30 W/m 8,3 km/h (2 Bft)
13.06.2013 18:00 14,9 C 13,2 C 91 % 1014,1 hPa 2,0 l/m 0,00 h 1,00 h 0,0 UV-I 35 W/m 11,5 km/h (2 Bft)
13.06.2013 19:00 13,3 C 11,8 C 93 % 1014,7 hPa 1,6 l/m 0,00 h 1,00 h 0,0 UV-I 15 W/m 9,0 km/h (2 Bft)
13.06.2013 20:00 12,4 C 11,2 C 94 % 1015,0 hPa 0,8 l/m 0,00 h 0,30 h 0,0 UV-I 15 W/m 4,5 km/h (1 Bft)
13.06.2013 21:00 12,2 C 11,2 C 95 % 1015,3 hPa 0,0 l/m 0,00 h 0,07 h 0,0 UV-I 11 W/m 5,4 km/h (1 Bft)
13.06.2013 22:00 12,0 C 10,8 C 96 % 1016,1 hPa 0,2 l/m 0,00 h 0,00 h 0,0 UV-I 7 W/m 9,2 km/h (2 Bft)
13.06.2013 23:00 11,8 C 10,7 C 96 % 1016,2 hPa 0,0 l/m 0,00 h 0,00 h 0,0 UV-I 0 W/m 6,3 km/h (2 Bft)
14.06.2013 00:00 11,7 C 10,7 C 96 % 1016,7 hPa 0,0 l/m 0,00 h 0,03 h 0,0 UV-I 0 W/m 10,1 km/h (2 Bft)
14.06.2013 01:00 11,7 C 10,5 C 94 % 1017,2 hPa 0,0 l/m 0,00 h 0,00 h 0,0 UV-I 0 W/m 10,3 km/h (2 Bft)
14.06.2013 02:00 11,4 C 10,2 C 92 % 1017,8 hPa 0,0 l/m 0,00 h 0,00 h 0,0 UV-I 0 W/m 9,1 km/h (2 Bft)
14.06.2013 03:00 11,0 C 9,7 C 91 % 1018,4 hPa 0,0 l/m 0,00 h 0,00 h 0,0 UV-I 0 W/m 6,5 km/h (2 Bft)
14.06.2013 04:00 10,5 C 9,3 C 92 % 1018,9 hPa 0,0 l/m 0,00 h 0,00 h 0,0 UV-I 0 W/m 5,9 km/h (2 Bft)
14.06.2013 05:00 10,1 C 9,0 C 93 % 1019,1 hPa 0,0 l/m 0,00 h 0,00 h 0,0 UV-I 13 W/m 2,1 km/h (1 Bft)
14.06.2013 06:00 10,1 C 9,8 C 94 % 1019,6 hPa 0,0 l/m 0,00 h 0,00 h 0,0 UV-I 51 W/m 3,9 km/h (1 Bft)
14.06.2013 07:00 10,9 C 10,6 C 93 % 1020,0 hPa 0,0 l/m 0,00 h 0,00 h 0,0 UV-I 113 W/m 7,2 km/h (2 Bft)
14.06.2013 08:00 11,8 C 11,9 C 91 % 1020,5 hPa 0,0 l/m 0,00 h 0,00 h 0,0 UV-I 170 W/m 10,6 km/h (2 Bft)
14.06.2013 09:00 12,9 C 13,2 C 87 % 1020,7 hPa 0,0 l/m 0,17 h 0,00 h 0,7 UV-I 287 W/m 8,6 km/h (2 Bft)
14.06.2013 10:00 13,7 C 14,1 C 84 % 1020,8 hPa 0,0 l/m 0,07 h 0,00 h 1,1 UV-I 299 W/m 11,1 km/h (2 Bft)
14.06.2013 11:00 14,4 C 15,3 C 81 % 1020,6 hPa 0,0 l/m 0,03 h 0,00 h 1,5 UV-I 302 W/m 7,9 km/h (2 Bft)
14.06.2013 12:00 16,6 C 21,4 C 75 % 1020,3 hPa 0,0 l/m 0,63 h 0,00 h 4,0 UV-I 751 W/m 9,4 km/h (2 Bft)
14.06.2013 13:00 18,1 C 22,9 C 68 % 1019,9 hPa 0,0 l/m 0,63 h 0,00 h 2,9 UV-I 703 W/m 9,4 km/h (2 Bft)
14.06.2013 14:00 18,1 C 19,4 C 64 % 1019,5 hPa 0,0 l/m 0,23 h 0,00 h 2,7 UV-I 460 W/m 7,4 km/h (2 Bft)
14.06.2013 15:00 17,3 C 17,5 C 66 % 1019,5 hPa 0,0 l/m 0,00 h 0,00 h 0,7 UV-I 214 W/m 1,8 km/h (1 Bft)
14.06.2013 16:00 17,8 C 18,8 C 63 % 1018,6 hPa 0,0 l/m 0,57 h 0,00 h 1,8 UV-I 477 W/m 3,1 km/h (1 Bft)
14.06.2013 17:00 18,4 C 18,7 C 61 % 1017,7 hPa 0,0 l/m 0,20 h 0,00 h 1,1 UV-I 274 W/m 1,1 km/h (1 Bft)
14.06.2013 18:00 18,3 C 18,3 C 63 % 1017,4 hPa 0,0 l/m 0,37 h 0,00 h 0,0 UV-I 229 W/m 3,2 km/h (1 Bft)
14.06.2013 19:00 17,7 C 17,1 C 65 % 1017,0 hPa 0,0 l/m 0,00 h 0,00 h 0,0 UV-I 96 W/m 2,4 km/h (1 Bft)
14.06.2013 20:00 17,3 C 16,2 C 69 % 1017,1 hPa 0,0 l/m 0,00 h 0,00 h 0,0 UV-I 63 W/m 0,2 km/h (0 Bft)
14.06.2013 21:00 16,9 C 14,1 C 71 % 1016,8 hPa 0,0 l/m 0,00 h 0,00 h 0,0 UV-I 19 W/m 0,0 km/h (0 Bft)
14.06.2013 22:00 15,6 C 12,0 C 76 % 1016,4 hPa 0,0 l/m 0,00 h 0,00 h 0,0 UV-I 0 W/m 0,0 km/h (0 Bft)
14.06.2013 23:00 14,0 C 10,8 C 81 % 1016,0 hPa 0,0 l/m 0,00 h 0,00 h 0,0 UV-I 0 W/m 0,0 km/h (0 Bft)
15.06.2013 00:00 12,5 C 9,9 C 85 % 1015,7 hPa 0,0 l/m 0,00 h 0,00 h 0,0 UV-I 0 W/m 0,0 km/h (0 Bft)
15.06.2013 01:00 11,8 C 9,8 C 87 % 1015,1 hPa 0,0 l/m 0,00 h 0,00 h 0,0 UV-I 0 W/m 0,0 km/h (0 Bft)
15.06.2013 02:00 11,3 C 9,6 C 88 % 1014,7 hPa 0,0 l/m 0,00 h 0,00 h 0,0 UV-I 0 W/m 0,0 km/h (0 Bft)
15.06.2013 03:00 11,0 C 9,2 C 90 % 1013,8 hPa 0,0 l/m 0,00 h 0,00 h 0,0 UV-I 0 W/m 0,0 km/h (0 Bft)
15.06.2013 04:00 10,6 C 9,4 C 91 % 1013,1 hPa 0,0 l/m 0,00 h 0,00 h 0,0 UV-I 0 W/m 0,0 km/h (0 Bft)
15.06.2013 05:00 10,3 C 9,0 C 92 % 1012,6 hPa 0,0 l/m 0,00 h 0,00 h 0,0 UV-I 13 W/m 0,0 km/h (0 Bft)
15.06.2013 06:00 10,5 C 10,3 C 93 % 1011,9 hPa 0,0 l/m 0,23 h 0,00 h 0,0 UV-I 66 W/m 0,9 km/h (0 Bft)
15.06.2013 07:00 12,2 C 12,5 C 92 % 1011,4 hPa 0,0 l/m 0,03 h 0,00 h 0,0 UV-I 118 W/m 12,1 km/h (2 Bft)
15.06.2013 08:00 14,0 C 14,5 C 88 % 1011,0 hPa 0,0 l/m 0,10 h 0,00 h 0,0 UV-I 200 W/m 12,6 km/h (3 Bft)
15.06.2013 09:00 16,1 C 16,3 C 81 % 1010,5 hPa 0,0 l/m 0,20 h 0,00 h 1,1 UV-I 214 W/m 11,4 km/h (2 Bft)
15.06.2013 10:00 18,4 C 19,6 C 73 % 1010,3 hPa 0,0 l/m 0,80 h 0,00 h 1,8 UV-I 464 W/m 19,2 km/h (3 Bft)
15.06.2013 11:00 18,6 C 19,6 C 69 % 1010,6 hPa 0,0 l/m 0,13 h 0,00 h 1,7 UV-I 341 W/m 25,7 km/h (4 Bft)
15.06.2013 12:00 18,7 C 20,7 C 71 % 1011,1 hPa 0,0 l/m 0,37 h 0,03 h 2,6 UV-I 480 W/m 17,1 km/h (3 Bft)
15.06.2013 13:00 19,2 C 21,7 C 72 % 1011,3 hPa 0,0 l/m 0,53 h 0,00 h 2,3 UV-I 549 W/m 19,3 km/h (3 Bft)
15.06.2013 14:00 16,8 C 15,6 C 85 % 1011,8 hPa 1,2 l/m 0,30 h 0,43 h 2,2 UV-I 395 W/m 13,1 km/h (3 Bft)
15.06.2013 15:00 19,0 C 17,8 C 73 % 1011,7 hPa 0,0 l/m 0,77 h 0,00 h 3,3 UV-I 666 W/m 17,0 km/h (3 Bft)
15.06.2013 16:00 20,5 C 20,2 C 50 % 1011,8 hPa 0,0 l/m 0,97 h 0,00 h 2,6 UV-I 655 W/m 23,2 km/h (4 Bft)
15.06.2013 17:00 20,8 C 19,8 C 47 % 1011,7 hPa 0,0 l/m 0,93 h 0,00 h 1,6 UV-I 527 W/m 19,1 km/h (3 Bft)
15.06.2013 18:00 20,0 C 18,3 C 46 % 1011,8 hPa 0,0 l/m 0,50 h 0,00 h 0,8 UV-I 259 W/m 20,7 km/h (4 Bft)
15.06.2013 19:00 18,9 C 17,1 C 50 % 1012,2 hPa 0,0 l/m 0,00 h 0,00 h 0,0 UV-I 53 W/m 14,0 km/h (3 Bft)
15.06.2013 20:00 17,8 C 16,3 C 55 % 1012,5 hPa 0,0 l/m 0,00 h 0,00 h 0,0 UV-I 49 W/m 9,0 km/h (2 Bft)
15.06.2013 21:00 17,0 C 15,0 C 59 % 1013,0 hPa 0,0 l/m 0,00 h 0,00 h 0,0 UV-I 15 W/m 4,7 km/h (1 Bft)
15.06.2013 22:00 15,9 C 13,3 C 63 % 1013,6 hPa 0,0 l/m 0,00 h 0,00 h 0,0 UV-I 0 W/m 1,9 km/h (1 Bft)
15.06.2013 23:00 14,9 C 12,4 C 67 % 1014,0 hPa 0,0 l/m 0,00 h 0,00 h 0,0 UV-I 0 W/m 0,1 km/h (0 Bft)
16.06.2013 00:00 14,4 C 13,0 C 70 % 1014,2 hPa 0,0 l/m 0,00 h 0,00 h 0,0 UV-I 0 W/m 2,0 km/h (1 Bft)
16.06.2013 01:00 14,6 C 13,4 C 70 % 1014,4 hPa 0,0 l/m 0,00 h 0,00 h 0,0 UV-I 0 W/m 3,8 km/h (1 Bft)
16.06.2013 02:00 14,2 C 12,6 C 71 % 1014,7 hPa 0,0 l/m 0,00 h 0,00 h 0,0 UV-I 0 W/m 3,0 km/h (1 Bft)
16.06.2013 03:00 13,3 C 11,6 C 74 % 1014,6 hPa 0,0 l/m 0,00 h 0,00 h 0,0 UV-I 0 W/m 3,8 km/h (1 Bft)
16.06.2013 04:00 12,7 C 11,3 C 76 % 1014,7 hPa 0,0 l/m 0,00 h 0,00 h 0,0 UV-I 0 W/m 3,9 km/h (1 Bft)
16.06.2013 05:00 12,2 C 11,1 C 78 % 1014,8 hPa 0,0 l/m 0,00 h 0,00 h 0,0 UV-I 13 W/m 2,7 km/h (1 Bft)
16.06.2013 06:00 12,4 C 11,8 C 79 % 1015,2 hPa 0,0 l/m 0,00 h 0,00 h 0,0 UV-I 39 W/m 4,5 km/h (1 Bft)
16.06.2013 07:00 13,1 C 12,7 C 78 % 1015,2 hPa 0,0 l/m 0,00 h 0,00 h 0,0 UV-I 105 W/m 6,7 km/h (2 Bft)
16.06.2013 08:00 14,0 C 13,8 C 75 % 1015,4 hPa 0,0 l/m 0,00 h 0,00 h 0,0 UV-I 180 W/m 8,0 km/h (2 Bft)
16.06.2013 09:00 15,0 C 15,1 C 72 % 1015,5 hPa 0,0 l/m 0,00 h 0,00 h 0,6 UV-I 240 W/m 9,8 km/h (2 Bft)
16.06.2013 10:00 16,3 C 17,4 C 68 % 1015,5 hPa 0,0 l/m 0,33 h 0,00 h 1,5 UV-I 357 W/m 8,0 km/h (2 Bft)
16.06.2013 11:00 17,4 C 18,4 C 66 % 1015,5 hPa 0,0 l/m 0,27 h 0,00 h 2,0 UV-I 397 W/m 11,5 km/h (2 Bft)
16.06.2013 12:00 18,5 C 20,9 C 64 % 1015,6 hPa 0,0 l/m 0,77 h 0,00 h 3,1 UV-I 553 W/m 12,9 km/h (3 Bft)
16.06.2013 13:00 19,8 C 23,0 C 61 % 1015,8 hPa 0,0 l/m 0,87 h 0,00 h 3,3 UV-I 664 W/m 12,6 km/h (3 Bft)
16.06.2013 14:00 20,8 C 23,1 C 58 % 1015,4 hPa 0,0 l/m 0,97 h 0,00 h 3,7 UV-I 641 W/m 9,5 km/h (2 Bft)
16.06.2013 15:00 21,8 C 23,8 C 54 % 1015,4 hPa 0,0 l/m 0,87 h 0,00 h 3,5 UV-I 636 W/m 8,1 km/h (2 Bft)
16.06.2013 16:00 20,7 C 21,2 C 54 % 1015,5 hPa 0,0 l/m 0,13 h 0,13 h 1,2 UV-I 300 W/m 4,4 km/h (1 Bft)
16.06.2013 17:00 19,9 C 19,6 C 59 % 1015,1 hPa 0,0 l/m 0,00 h 0,40 h 0,5 UV-I 192 W/m 1,4 km/h (1 Bft)
16.06.2013 18:00 19,6 C 19,4 C 60 % 1015,0 hPa 0,0 l/m 0,00 h 0,23 h 0,0 UV-I 169 W/m 1,0 km/h (0 Bft)
16.06.2013 19:00 19,2 C 18,6 C 59 % 1015,2 hPa 0,0 l/m 0,00 h 0,03 h 0,0 UV-I 100 W/m 0,9 km/h (0 Bft)
16.06.2013 20:00 18,6 C 17,8 C 62 % 1014,9 hPa 0,0 l/m 0,00 h 0,00 h 0,0 UV-I 50 W/m 4,3 km/h (1 Bft)
16.06.2013 21:00 17,9 C 16,6 C 68 % 1014,7 hPa 0,0 l/m 0,13 h 0,10 h 0,0 UV-I 17 W/m 0,3 km/h (0 Bft)
16.06.2013 22:00 17,2 C 15,4 C 69 % 1015,5 hPa 0,0 l/m 0,00 h 0,00 h 0,0 UV-I 0 W/m 2,9 km/h (1 Bft)
16.06.2013 23:00 16,0 C 14,6 C 70 % 1015,6 hPa 0,0 l/m 0,00 h 0,00 h 0,0 UV-I 0 W/m 2,0 km/h (1 Bft)
Min-Datum _ 11.06.13 11.06.13 15.06.13 15.06.13 - - - - - 10.06.13
_ Min-Zeit 06:18 04:50 17:46 10:22 - - - - - 04:44
Minimum _ 8,3 C 6,8 C 45 % 1010,2 hPa - - - - - 0,0 km/h (0 Bft)
Max-Datum _ 13.06.13 11.06.13 11.06.13 14.06.13 13.06.13 10.06.13 12.06.13 14.06.13 15.06.13 15.06.13
_ Max-Zeit 13:00 12:44 06:46 10:16 18:00 07:50 22:02 13:54 13:06 12:44
Maximum _ 24,4 C 30,7 C 96 % 1020,9 hPa 2,0 l/m 0,03 h 0,03 h 5,4 UV-I 1116 W/m 46,3 km/h
W (6 Bft)
Durchschnitt _ 16,5 C 16,1 C 75 % 1015,0 hPa #7,2 l/m #32:23 h #7:56 h 2,0 UV-I 269 W/m 6,9 km/h (2 Bft)
© 2013 W. Hausmann